Coleman Municipal Airport


Codes: KCOM/COM
Name: Coleman Municipal Airport
City: Coleman
Country: United States
Elevation: 1697 ft.
Website:
Wikipedia:

Photos at Coleman Municipal Airport


   Photos courtesy of SpottingLog. You can add your own sightings and photos by signing up for a free trial today.



No photos found.

Weather at Coleman Municipal Airport


Time (UTC)DescriptionTempratureWindCloud coverageVisibilityPressureHumidity
18-Apr-2024 00:00Clear Sky29°C11 mph, SE0%10000m1010hPa51%
18-Apr-2024 03:00Scattered Clouds27°C9 mph, SE28%10000m1010hPa57%
18-Apr-2024 06:00Light Rain24°C13 mph, S57%10000m1011hPa77%
18-Apr-2024 09:00Scattered Clouds20°C13 mph, S32%10000m1011hPa95%
18-Apr-2024 12:00Scattered Clouds20°C9 mph, SW44%10000m1011hPa96%
18-Apr-2024 15:00Scattered Clouds26°C13 mph, SW35%10000m1012hPa67%
18-Apr-2024 18:00Few Clouds33°C9 mph, SW17%10000m1011hPa39%
18-Apr-2024 21:00Light Rain35°C7 mph, NW5%10000m1008hPa26%
19-Apr-2024 00:00Light Rain26°C25 mph, NE29%10000m1010hPa40%
19-Apr-2024 03:00Clear Sky19°C20 mph, NE3%10000m1016hPa71%
19-Apr-2024 06:00Clear Sky16°C13 mph, NE1%10000m1017hPa72%
19-Apr-2024 09:00Few Clouds14°C13 mph, NE19%10000m1017hPa81%
19-Apr-2024 12:00Scattered Clouds14°C16 mph, NE47%10000m1018hPa78%
19-Apr-2024 15:00Overcast Clouds14°C11 mph, NE100%10000m1020hPa72%
19-Apr-2024 18:00Overcast Clouds16°C11 mph, NE100%10000m1019hPa65%
19-Apr-2024 21:00Overcast Clouds22°C9 mph, E96%10000m1016hPa53%
20-Apr-2024 00:00Overcast Clouds22°C11 mph, E94%10000m1014hPa56%
20-Apr-2024 03:00Overcast Clouds20°C11 mph, E100%10000m1016hPa70%
20-Apr-2024 06:00Light Rain18°C9 mph, E100%10000m1016hPa85%
20-Apr-2024 09:00Light Rain17°C9 mph, E100%10000m1015hPa93%
20-Apr-2024 12:00Overcast Clouds17°C11 mph, NE100%10000m1016hPa96%
20-Apr-2024 15:00Light Rain16°C16 mph, N100%0m1018hPa96%
20-Apr-2024 18:00Light Rain15°C16 mph, N100%0m1018hPa96%
20-Apr-2024 21:00Light Rain15°C16 mph, NE100%3180m1015hPa95%
21-Apr-2024 00:00Heavy Intensity Rain15°C13 mph, NE100%3484m1016hPa96%
21-Apr-2024 03:00Moderate Rain14°C11 mph, N100%0m1018hPa97%
21-Apr-2024 06:00Light Rain13°C13 mph, NE100%10000m1019hPa95%
21-Apr-2024 09:00Light Rain12°C11 mph, NE100%150m1019hPa97%
21-Apr-2024 12:00Light Rain11°C13 mph, N100%10000m1021hPa96%
21-Apr-2024 15:00Light Rain11°C13 mph, NE100%10000m1023hPa93%
21-Apr-2024 18:00Overcast Clouds12°C13 mph, NE100%10000m1023hPa88%
21-Apr-2024 21:00Overcast Clouds14°C13 mph, NE97%10000m1021hPa73%
22-Apr-2024 00:00Overcast Clouds13°C11 mph, NE96%10000m1020hPa75%
22-Apr-2024 03:00Overcast Clouds13°C7 mph, NE100%10000m1022hPa76%
22-Apr-2024 06:00Overcast Clouds13°C7 mph, E100%10000m1021hPa79%
22-Apr-2024 09:00Overcast Clouds12°C7 mph, SE100%10000m1021hPa83%
22-Apr-2024 12:00Overcast Clouds11°C7 mph, SE97%10000m1020hPa88%
22-Apr-2024 15:00Overcast Clouds15°C9 mph, SE100%10000m1020hPa74%
22-Apr-2024 18:00Overcast Clouds20°C9 mph, S91%10000m1018hPa59%
22-Apr-2024 21:00Scattered Clouds24°C11 mph, S30%10000m1014hPa47%